sensor_id;sensor_type;location;lat;lon;timestamp;temperature;humidity
2783;DHT22;1399;47.072;15.452;2022-11-20T00:01:09;9.90;58.30
2783;DHT22;1399;47.072;15.452;2022-11-20T00:03:36;9.90;58.30
2783;DHT22;1399;47.072;15.452;2022-11-20T00:06:04;9.90;58.20
2783;DHT22;1399;47.072;15.452;2022-11-20T00:08:32;9.90;58.20
2783;DHT22;1399;47.072;15.452;2022-11-20T00:11:02;9.90;58.30
2783;DHT22;1399;47.072;15.452;2022-11-20T00:13:28;9.90;58.30
2783;DHT22;1399;47.072;15.452;2022-11-20T00:15:58;10.00;57.50
2783;DHT22;1399;47.072;15.452;2022-11-20T00:18:24;9.90;58.20
2783;DHT22;1399;47.072;15.452;2022-11-20T00:20:50;9.90;58.30
2783;DHT22;1399;47.072;15.452;2022-11-20T00:23:16;9.90;58.30
2783;DHT22;1399;47.072;15.452;2022-11-20T00:25:41;9.90;58.30
2783;DHT22;1399;47.072;15.452;2022-11-20T00:28:07;9.90;58.30
2783;DHT22;1399;47.072;15.452;2022-11-20T00:30:33;9.90;58.30
2783;DHT22;1399;47.072;15.452;2022-11-20T00:32:59;10.00;57.60
2783;DHT22;1399;47.072;15.452;2022-11-20T00:35:25;9.90;58.40
2783;DHT22;1399;47.072;15.452;2022-11-20T00:37:51;9.90;58.30
2783;DHT22;1399;47.072;15.452;2022-11-20T00:40:17;9.90;58.30
2783;DHT22;1399;47.072;15.452;2022-11-20T00:42:43;9.90;58.20
2783;DHT22;1399;47.072;15.452;2022-11-20T00:45:08;9.90;58.30
2783;DHT22;1399;47.072;15.452;2022-11-20T00:47:34;10.00;57.50
2783;DHT22;1399;47.072;15.452;2022-11-20T00:50:00;9.90;58.20
2783;DHT22;1399;47.072;15.452;2022-11-20T00:52:26;9.90;58.10
2783;DHT22;1399;47.072;15.452;2022-11-20T00:54:52;9.90;58.10
2783;DHT22;1399;47.072;15.452;2022-11-20T00:57:18;9.90;58.20
2783;DHT22;1399;47.072;15.452;2022-11-20T00:59:43;9.90;58.10
2783;DHT22;1399;47.072;15.452;2022-11-20T01:02:09;10.00;57.40
2783;DHT22;1399;47.072;15.452;2022-11-20T01:04:34;10.00;57.40
2783;DHT22;1399;47.072;15.452;2022-11-20T01:07:00;10.00;57.40
2783;DHT22;1399;47.072;15.452;2022-11-20T01:09:26;10.00;57.40
2783;DHT22;1399;47.072;15.452;2022-11-20T01:11:51;10.00;57.60
2783;DHT22;1399;47.072;15.452;2022-11-20T01:14:19;10.00;57.70
2783;DHT22;1399;47.072;15.452;2022-11-20T01:16:48;10.00;57.70
2783;DHT22;1399;47.072;15.452;2022-11-20T01:19:20;10.00;57.70
2783;DHT22;1399;47.072;15.452;2022-11-20T01:21:50;10.00;57.80
2783;DHT22;1399;47.072;15.452;2022-11-20T01:24:18;10.00;57.80
2783;DHT22;1399;47.072;15.452;2022-11-20T01:26:46;10.00;57.80
2783;DHT22;1399;47.072;15.452;2022-11-20T01:29:14;10.00;58.00
2783;DHT22;1399;47.072;15.452;2022-11-20T01:31:41;10.00;58.10
2783;DHT22;1399;47.072;15.452;2022-11-20T01:34:11;10.00;58.10
2783;DHT22;1399;47.072;15.452;2022-11-20T01:36:39;10.00;58.00
2783;DHT22;1399;47.072;15.452;2022-11-20T01:39:07;10.00;58.00
2783;DHT22;1399;47.072;15.452;2022-11-20T01:41:35;10.00;58.00
2783;DHT22;1399;47.072;15.452;2022-11-20T01:44:41;10.00;58.00
2783;DHT22;1399;47.072;15.452;2022-11-20T01:47:09;10.00;58.00
2783;DHT22;1399;47.072;15.452;2022-11-20T01:49:50;10.00;58.00
2783;DHT22;1399;47.072;15.452;2022-11-20T01:52:21;10.00;58.10
2783;DHT22;1399;47.072;15.452;2022-11-20T01:54:54;10.00;58.10
2783;DHT22;1399;47.072;15.452;2022-11-20T01:57:22;10.00;58.10
2783;DHT22;1399;47.072;15.452;2022-11-20T02:00:12;10.00;58.10
2783;DHT22;1399;47.072;15.452;2022-11-20T02:02:41;10.00;58.10
2783;DHT22;1399;47.072;15.452;2022-11-20T02:05:41;10.00;58.10
2783;DHT22;1399;47.072;15.452;2022-11-20T02:08:10;10.00;58.00
2783;DHT22;1399;47.072;15.452;2022-11-20T02:10:36;10.00;58.00
2783;DHT22;1399;47.072;15.452;2022-11-20T02:13:02;10.00;58.10
2783;DHT22;1399;47.072;15.452;2022-11-20T02:15:47;10.00;58.20
2783;DHT22;1399;47.072;15.452;2022-11-20T02:18:16;10.00;58.10
2783;DHT22;1399;47.072;15.452;2022-11-20T02:20:44;10.00;58.10
2783;DHT22;1399;47.072;15.452;2022-11-20T02:25:49;10.00;58.10
2783;DHT22;1399;47.072;15.452;2022-11-20T02:28:17;10.00;58.10
2783;DHT22;1399;47.072;15.452;2022-11-20T02:30:43;10.00;58.10
2783;DHT22;1399;47.072;15.452;2022-11-20T02:33:09;10.00;58.30
2783;DHT22;1399;47.072;15.452;2022-11-20T02:35:38;10.00;58.90
2783;DHT22;1399;47.072;15.452;2022-11-20T02:38:04;10.00;58.40
2783;DHT22;1399;47.072;15.452;2022-11-20T02:40:30;9.90;59.10
2783;DHT22;1399;47.072;15.452;2022-11-20T02:42:56;9.90;59.20
2783;DHT22;1399;47.072;15.452;2022-11-20T02:45:23;10.00;58.40
2783;DHT22;1399;47.072;15.452;2022-11-20T02:47:49;9.90;59.20
2783;DHT22;1399;47.072;15.452;2022-11-20T02:50:15;10.00;58.50
2783;DHT22;1399;47.072;15.452;2022-11-20T02:52:41;9.90;59.30
2783;DHT22;1399;47.072;15.452;2022-11-20T02:55:07;10.00;58.40
2783;DHT22;1399;47.072;15.452;2022-11-20T02:57:33;10.00;58.40
2783;DHT22;1399;47.072;15.452;2022-11-20T02:59:59;10.00;58.40
2783;DHT22;1399;47.072;15.452;2022-11-20T03:02:25;10.00;58.40
2783;DHT22;1399;47.072;15.452;2022-11-20T03:04:51;10.00;58.30
2783;DHT22;1399;47.072;15.452;2022-11-20T03:07:16;9.90;59.10
2783;DHT22;1399;47.072;15.452;2022-11-20T03:09:42;9.90;59.10
2783;DHT22;1399;47.072;15.452;2022-11-20T03:12:08;10.00;58.40
2783;DHT22;1399;47.072;15.452;2022-11-20T03:14:34;10.00;58.50
2783;DHT22;1399;47.072;15.452;2022-11-20T03:17:00;10.00;58.40
2783;DHT22;1399;47.072;15.452;2022-11-20T03:19:25;10.00;58.40
2783;DHT22;1399;47.072;15.452;2022-11-20T03:21:51;10.00;58.40
2783;DHT22;1399;47.072;15.452;2022-11-20T03:24:17;10.00;58.40
2783;DHT22;1399;47.072;15.452;2022-11-20T03:26:42;10.00;58.40
2783;DHT22;1399;47.072;15.452;2022-11-20T03:29:08;10.00;58.50
2783;DHT22;1399;47.072;15.452;2022-11-20T03:31:36;10.00;58.50
2783;DHT22;1399;47.072;15.452;2022-11-20T03:34:03;10.00;58.60
2783;DHT22;1399;47.072;15.452;2022-11-20T03:36:30;10.00;58.50
2783;DHT22;1399;47.072;15.452;2022-11-20T03:38:56;10.00;59.20
2783;DHT22;1399;47.072;15.452;2022-11-20T03:41:25;10.00;58.60
2783;DHT22;1399;47.072;15.452;2022-11-20T03:43:58;10.00;58.60
2783;DHT22;1399;47.072;15.452;2022-11-20T03:46:25;10.00;58.60
2783;DHT22;1399;47.072;15.452;2022-11-20T03:48:51;10.00;58.70
2783;DHT22;1399;47.072;15.452;2022-11-20T03:51:24;10.00;58.70
2783;DHT22;1399;47.072;15.452;2022-11-20T03:53:53;10.00;58.70
2783;DHT22;1399;47.072;15.452;2022-11-20T03:56:22;10.00;58.80
2783;DHT22;1399;47.072;15.452;2022-11-20T03:58:49;10.00;58.80
2783;DHT22;1399;47.072;15.452;2022-11-20T04:01:20;10.00;58.80
2783;DHT22;1399;47.072;15.452;2022-11-20T04:03:46;10.00;58.80
2783;DHT22;1399;47.072;15.452;2022-11-20T04:06:18;10.00;58.90
2783;DHT22;1399;47.072;15.452;2022-11-20T04:08:45;10.00;58.80
2783;DHT22;1399;47.072;15.452;2022-11-20T04:13:57;10.00;58.70
2783;DHT22;1399;47.072;15.452;2022-11-20T04:16:26;10.00;58.70
2783;DHT22;1399;47.072;15.452;2022-11-20T04:18:58;9.90;59.50
2783;DHT22;1399;47.072;15.452;2022-11-20T04:21:26;10.00;58.80
2783;DHT22;1399;47.072;15.452;2022-11-20T04:23:52;10.00;58.80
2783;DHT22;1399;47.072;15.452;2022-11-20T04:26:20;10.00;58.80
2783;DHT22;1399;47.072;15.452;2022-11-20T04:28:46;10.00;58.80
2783;DHT22;1399;47.072;15.452;2022-11-20T04:31:18;10.00;58.80
2783;DHT22;1399;47.072;15.452;2022-11-20T04:33:44;9.90;59.60
2783;DHT22;1399;47.072;15.452;2022-11-20T04:36:15;9.90;59.50
2783;DHT22;1399;47.072;15.452;2022-11-20T04:38:41;9.90;59.50
2783;DHT22;1399;47.072;15.452;2022-11-20T04:41:17;9.90;59.50
2783;DHT22;1399;47.072;15.452;2022-11-20T04:43:49;9.90;59.60
2783;DHT22;1399;47.072;15.452;2022-11-20T04:46:17;9.90;59.60
2783;DHT22;1399;47.072;15.452;2022-11-20T04:48:42;9.90;59.60
2783;DHT22;1399;47.072;15.452;2022-11-20T04:51:08;9.90;59.60
2783;DHT22;1399;47.072;15.452;2022-11-20T04:53:34;9.90;59.60
2783;DHT22;1399;47.072;15.452;2022-11-20T04:56:03;9.90;59.60
2783;DHT22;1399;47.072;15.452;2022-11-20T04:58:30;9.90;59.60
2783;DHT22;1399;47.072;15.452;2022-11-20T05:01:02;9.90;59.70
2783;DHT22;1399;47.072;15.452;2022-11-20T05:03:28;9.90;59.70
2783;DHT22;1399;47.072;15.452;2022-11-20T05:05:54;9.90;59.80
2783;DHT22;1399;47.072;15.452;2022-11-20T05:08:20;9.80;59.80
2783;DHT22;1399;47.072;15.452;2022-11-20T05:10:46;9.90;59.80
2783;DHT22;1399;47.072;15.452;2022-11-20T05:13:11;9.80;60.10
2783;DHT22;1399;47.072;15.452;2022-11-20T05:15:37;9.80;59.90
2783;DHT22;1399;47.072;15.452;2022-11-20T05:18:03;9.80;59.90
2783;DHT22;1399;47.072;15.452;2022-11-20T05:20:28;9.90;59.90
2783;DHT22;1399;47.072;15.452;2022-11-20T05:22:57;9.90;59.90
2783;DHT22;1399;47.072;15.452;2022-11-20T05:25:23;9.90;59.90
2783;DHT22;1399;47.072;15.452;2022-11-20T05:27:48;9.90;59.90
2783;DHT22;1399;47.072;15.452;2022-11-20T05:30:14;9.90;59.90
2783;DHT22;1399;47.072;15.452;2022-11-20T05:32:40;9.90;59.90
2783;DHT22;1399;47.072;15.452;2022-11-20T05:35:06;9.90;59.90
2783;DHT22;1399;47.072;15.452;2022-11-20T05:37:32;9.90;60.00
2783;DHT22;1399;47.072;15.452;2022-11-20T05:39:58;9.90;60.00
2783;DHT22;1399;47.072;15.452;2022-11-20T05:42:23;9.90;60.00
2783;DHT22;1399;47.072;15.452;2022-11-20T05:45:03;9.90;60.00
2783;DHT22;1399;47.072;15.452;2022-11-20T05:47:34;9.90;60.10
2783;DHT22;1399;47.072;15.452;2022-11-20T05:50:00;9.90;60.20
2783;DHT22;1399;47.072;15.452;2022-11-20T05:52:29;9.90;60.30
2783;DHT22;1399;47.072;15.452;2022-11-20T05:54:55;9.90;60.40
2783;DHT22;1399;47.072;15.452;2022-11-20T05:57:21;9.90;60.50
2783;DHT22;1399;47.072;15.452;2022-11-20T05:59:47;9.90;60.50
2783;DHT22;1399;47.072;15.452;2022-11-20T06:02:12;9.90;60.60
2783;DHT22;1399;47.072;15.452;2022-11-20T06:04:38;9.90;60.60
2783;DHT22;1399;47.072;15.452;2022-11-20T06:07:07;9.90;60.90
2783;DHT22;1399;47.072;15.452;2022-11-20T06:09:33;9.90;61.10
2783;DHT22;1399;47.072;15.452;2022-11-20T06:11:59;9.90;61.20
2783;DHT22;1399;47.072;15.452;2022-11-20T06:14:24;9.90;61.20
2783;DHT22;1399;47.072;15.452;2022-11-20T06:16:50;9.90;61.10
2783;DHT22;1399;47.072;15.452;2022-11-20T06:19:16;10.00;60.10
2783;DHT22;1399;47.072;15.452;2022-11-20T06:21:42;10.00;60.10
2783;DHT22;1399;47.072;15.452;2022-11-20T06:24:09;10.00;60.20
2783;DHT22;1399;47.072;15.452;2022-11-20T06:26:36;10.00;60.00
2783;DHT22;1399;47.072;15.452;2022-11-20T06:29:01;10.00;60.00
2783;DHT22;1399;47.072;15.452;2022-11-20T06:31:27;10.00;60.00
2783;DHT22;1399;47.072;15.452;2022-11-20T06:33:54;10.00;59.90
2783;DHT22;1399;47.072;15.452;2022-11-20T06:36:21;10.00;59.90
2783;DHT22;1399;47.072;15.452;2022-11-20T06:38:48;10.00;59.90
2783;DHT22;1399;47.072;15.452;2022-11-20T06:41:16;10.00;59.90
2783;DHT22;1399;47.072;15.452;2022-11-20T06:43:42;10.00;59.80
2783;DHT22;1399;47.072;15.452;2022-11-20T06:46:10;10.00;59.80
2783;DHT22;1399;47.072;15.452;2022-11-20T06:48:36;10.10;59.80
2783;DHT22;1399;47.072;15.452;2022-11-20T06:51:06;10.00;59.70
2783;DHT22;1399;47.072;15.452;2022-11-20T06:53:32;10.10;59.60
2783;DHT22;1399;47.072;15.452;2022-11-20T06:55:58;10.10;59.60
2783;DHT22;1399;47.072;15.452;2022-11-20T06:58:27;10.10;59.60
2783;DHT22;1399;47.072;15.452;2022-11-20T07:00:53;10.10;59.60
2783;DHT22;1399;47.072;15.452;2022-11-20T07:03:19;10.10;59.50
2783;DHT22;1399;47.072;15.452;2022-11-20T07:05:45;10.10;59.50
2783;DHT22;1399;47.072;15.452;2022-11-20T07:08:11;10.10;59.30
2783;DHT22;1399;47.072;15.452;2022-11-20T07:10:37;10.10;59.40
2783;DHT22;1399;47.072;15.452;2022-11-20T07:13:03;10.10;59.30
2783;DHT22;1399;47.072;15.452;2022-11-20T07:15:29;10.10;59.30
2783;DHT22;1399;47.072;15.452;2022-11-20T07:17:55;10.10;59.30
2783;DHT22;1399;47.072;15.452;2022-11-20T07:20:23;10.10;59.80
2783;DHT22;1399;47.072;15.452;2022-11-20T07:22:53;10.20;59.10
2783;DHT22;1399;47.072;15.452;2022-11-20T07:25:20;10.20;59.10
2783;DHT22;1399;47.072;15.452;2022-11-20T07:27:46;10.20;59.20
2783;DHT22;1399;47.072;15.452;2022-11-20T07:30:12;10.20;59.00
2783;DHT22;1399;47.072;15.452;2022-11-20T07:32:39;10.20;59.00
2783;DHT22;1399;47.072;15.452;2022-11-20T07:35:05;10.20;59.00
2783;DHT22;1399;47.072;15.452;2022-11-20T07:37:34;10.30;58.90
2783;DHT22;1399;47.072;15.452;2022-11-20T07:40:00;10.30;58.90
2783;DHT22;1399;47.072;15.452;2022-11-20T07:42:25;10.30;58.80
2783;DHT22;1399;47.072;15.452;2022-11-20T07:44:51;10.30;58.80
2783;DHT22;1399;47.072;15.452;2022-11-20T07:47:17;10.30;58.80
2783;DHT22;1399;47.072;15.452;2022-11-20T07:49:42;10.40;58.80
2783;DHT22;1399;47.072;15.452;2022-11-20T07:52:08;10.40;58.80
2783;DHT22;1399;47.072;15.452;2022-11-20T07:54:34;10.40;58.70
2783;DHT22;1399;47.072;15.452;2022-11-20T07:56:59;10.40;58.80
2783;DHT22;1399;47.072;15.452;2022-11-20T07:59:25;10.40;58.80
2783;DHT22;1399;47.072;15.452;2022-11-20T08:01:51;10.50;58.90
2783;DHT22;1399;47.072;15.452;2022-11-20T08:04:16;10.50;58.90
2783;DHT22;1399;47.072;15.452;2022-11-20T08:06:42;10.50;58.90
2783;DHT22;1399;47.072;15.452;2022-11-20T08:09:08;10.50;58.90
2783;DHT22;1399;47.072;15.452;2022-11-20T08:11:34;10.50;58.90
2783;DHT22;1399;47.072;15.452;2022-11-20T08:14:17;10.50;58.90
2783;DHT22;1399;47.072;15.452;2022-11-20T08:16:46;10.50;58.90
2783;DHT22;1399;47.072;15.452;2022-11-20T08:19:13;10.60;59.00
2783;DHT22;1399;47.072;15.452;2022-11-20T08:21:39;10.60;59.00
2783;DHT22;1399;47.072;15.452;2022-11-20T08:24:06;10.60;59.00
2783;DHT22;1399;47.072;15.452;2022-11-20T08:26:32;10.60;59.00
2783;DHT22;1399;47.072;15.452;2022-11-20T08:28:58;10.60;59.00
2783;DHT22;1399;47.072;15.452;2022-11-20T08:31:26;10.70;59.10
2783;DHT22;1399;47.072;15.452;2022-11-20T08:33:52;10.60;59.00
2783;DHT22;1399;47.072;15.452;2022-11-20T08:36:19;10.70;59.10
2783;DHT22;1399;47.072;15.452;2022-11-20T08:38:52;10.70;59.10
2783;DHT22;1399;47.072;15.452;2022-11-20T08:41:17;10.70;59.10
2783;DHT22;1399;47.072;15.452;2022-11-20T08:46:22;10.70;58.90
2783;DHT22;1399;47.072;15.452;2022-11-20T08:48:48;10.70;58.90
2783;DHT22;1399;47.072;15.452;2022-11-20T08:51:14;10.70;58.90
2783;DHT22;1399;47.072;15.452;2022-11-20T08:53:40;10.80;59.00
2783;DHT22;1399;47.072;15.452;2022-11-20T08:56:07;10.80;59.00
2783;DHT22;1399;47.072;15.452;2022-11-20T08:58:33;10.70;59.00
2783;DHT22;1399;47.072;15.452;2022-11-20T09:00:58;10.70;59.00
2783;DHT22;1399;47.072;15.452;2022-11-20T09:03:24;10.80;59.10
2783;DHT22;1399;47.072;15.452;2022-11-20T09:06:00;10.80;59.00
2783;DHT22;1399;47.072;15.452;2022-11-20T09:08:26;10.80;59.00
2783;DHT22;1399;47.072;15.452;2022-11-20T09:10:53;10.80;59.00
2783;DHT22;1399;47.072;15.452;2022-11-20T09:13:20;10.90;59.00
2783;DHT22;1399;47.072;15.452;2022-11-20T09:15:46;10.90;59.00
2783;DHT22;1399;47.072;15.452;2022-11-20T09:18:13;10.90;58.90
2783;DHT22;1399;47.072;15.452;2022-11-20T09:20:39;10.90;58.90
2783;DHT22;1399;47.072;15.452;2022-11-20T09:23:04;10.90;58.90
2783;DHT22;1399;47.072;15.452;2022-11-20T09:25:30;10.90;58.90
2783;DHT22;1399;47.072;15.452;2022-11-20T09:27:57;10.90;58.90
2783;DHT22;1399;47.072;15.452;2022-11-20T09:30:22;10.90;58.90
2783;DHT22;1399;47.072;15.452;2022-11-20T09:32:48;11.00;58.90
2783;DHT22;1399;47.072;15.452;2022-11-20T09:35:14;11.00;59.00
2783;DHT22;1399;47.072;15.452;2022-11-20T09:37:40;11.00;59.00
2783;DHT22;1399;47.072;15.452;2022-11-20T09:40:06;11.10;59.00
2783;DHT22;1399;47.072;15.452;2022-11-20T09:46:25;11.10;59.00
2783;DHT22;1399;47.072;15.452;2022-11-20T09:56:56;11.20;58.90
2783;DHT22;1399;47.072;15.452;2022-11-20T09:59:41;11.20;58.90
2783;DHT22;1399;47.072;15.452;2022-11-20T10:07:44;11.20;58.90
2783;DHT22;1399;47.072;15.452;2022-11-20T10:10:27;11.20;59.00
2783;DHT22;1399;47.072;15.452;2022-11-20T10:29:16;11.30;59.30
2783;DHT22;1399;47.072;15.452;2022-11-20T10:31:54;11.30;59.30
2783;DHT22;1399;47.072;15.452;2022-11-20T10:37:16;11.30;59.30
2783;DHT22;1399;47.072;15.452;2022-11-20T10:42:16;11.40;59.40
2783;DHT22;1399;47.072;15.452;2022-11-20T10:44:50;11.40;59.40
2783;DHT22;1399;47.072;15.452;2022-11-20T10:47:30;11.40;59.30
2783;DHT22;1399;47.072;15.452;2022-11-20T10:50:03;11.50;59.30
2783;DHT22;1399;47.072;15.452;2022-11-20T10:55:28;11.50;59.00
2783;DHT22;1399;47.072;15.452;2022-11-20T10:58:14;11.60;59.00
2783;DHT22;1399;47.072;15.452;2022-11-20T11:00:43;11.70;59.00
2783;DHT22;1399;47.072;15.452;2022-11-20T11:03:27;11.70;59.50
2783;DHT22;1399;47.072;15.452;2022-11-20T11:06:10;11.80;59.00
2783;DHT22;1399;47.072;15.452;2022-11-20T11:08:39;11.80;59.00
2783;DHT22;1399;47.072;15.452;2022-11-20T11:11:24;11.80;58.90
2783;DHT22;1399;47.072;15.452;2022-11-20T11:13:51;11.90;59.00
2783;DHT22;1399;47.072;15.452;2022-11-20T11:16:23;11.90;58.90
2783;DHT22;1399;47.072;15.452;2022-11-20T11:18:50;12.00;59.00
2783;DHT22;1399;47.072;15.452;2022-11-20T11:21:24;12.00;59.10
2783;DHT22;1399;47.072;15.452;2022-11-20T11:23:59;12.00;59.10
2783;DHT22;1399;47.072;15.452;2022-11-20T11:26:25;12.10;59.10
2783;DHT22;1399;47.072;15.452;2022-11-20T11:29:02;12.10;59.10
2783;DHT22;1399;47.072;15.452;2022-11-20T11:31:34;12.20;59.30
2783;DHT22;1399;47.072;15.452;2022-11-20T11:34:27;12.20;59.30
2783;DHT22;1399;47.072;15.452;2022-11-20T11:36:57;12.20;59.30
2783;DHT22;1399;47.072;15.452;2022-11-20T11:39:24;12.30;59.30
2783;DHT22;1399;47.072;15.452;2022-11-20T11:41:50;12.30;59.40
2783;DHT22;1399;47.072;15.452;2022-11-20T11:44:23;12.30;59.50
2783;DHT22;1399;47.072;15.452;2022-11-20T11:47:26;12.20;59.40
2783;DHT22;1399;47.072;15.452;2022-11-20T11:50:19;12.20;59.40
2783;DHT22;1399;47.072;15.452;2022-11-20T11:58:16;12.10;59.40
2783;DHT22;1399;47.072;15.452;2022-11-20T12:00:55;12.10;59.40
2783;DHT22;1399;47.072;15.452;2022-11-20T12:03:34;12.00;59.30
2783;DHT22;1399;47.072;15.452;2022-11-20T12:08:57;12.00;59.40
2783;DHT22;1399;47.072;15.452;2022-11-20T12:11:45;12.00;59.50
2783;DHT22;1399;47.072;15.452;2022-11-20T12:14:27;12.00;59.50
2783;DHT22;1399;47.072;15.452;2022-11-20T12:16:55;12.00;59.50
2783;DHT22;1399;47.072;15.452;2022-11-20T12:19:30;12.00;59.50
2783;DHT22;1399;47.072;15.452;2022-11-20T12:25:08;12.00;59.60
2783;DHT22;1399;47.072;15.452;2022-11-20T12:30:48;11.90;59.40
2783;DHT22;1399;47.072;15.452;2022-11-20T12:39:05;11.90;59.30
2783;DHT22;1399;47.072;15.452;2022-11-20T12:44:40;11.90;59.20
2783;DHT22;1399;47.072;15.452;2022-11-20T12:58:41;11.90;59.00
2783;DHT22;1399;47.072;15.452;2022-11-20T13:06:39;11.90;59.00
2783;DHT22;1399;47.072;15.452;2022-11-20T13:09:13;11.90;58.90
2783;DHT22;1399;47.072;15.452;2022-11-20T13:17:22;12.00;59.00
2783;DHT22;1399;47.072;15.452;2022-11-20T13:19:53;12.00;58.80
2783;DHT22;1399;47.072;15.452;2022-11-20T13:22:28;12.10;58.90
2783;DHT22;1399;47.072;15.452;2022-11-20T13:24:55;12.10;58.80
2783;DHT22;1399;47.072;15.452;2022-11-20T13:27:24;12.10;58.90
2783;DHT22;1399;47.072;15.452;2022-11-20T13:30:12;12.20;58.90
2783;DHT22;1399;47.072;15.452;2022-11-20T13:33:06;12.20;58.90
2783;DHT22;1399;47.072;15.452;2022-11-20T13:35:40;12.20;58.90
2783;DHT22;1399;47.072;15.452;2022-11-20T13:38:09;12.20;58.90
2783;DHT22;1399;47.072;15.452;2022-11-20T13:40:54;12.30;59.00
2783;DHT22;1399;47.072;15.452;2022-11-20T13:46:02;12.30;58.90
2783;DHT22;1399;47.072;15.452;2022-11-20T13:48:34;12.30;58.80
2783;DHT22;1399;47.072;15.452;2022-11-20T13:59:09;12.30;58.90
2783;DHT22;1399;47.072;15.452;2022-11-20T14:01:37;12.30;59.00
2783;DHT22;1399;47.072;15.452;2022-11-20T14:04:15;12.30;59.00
2783;DHT22;1399;47.072;15.452;2022-11-20T14:06:44;12.30;59.00
2783;DHT22;1399;47.072;15.452;2022-11-20T14:09:29;12.30;58.90
2783;DHT22;1399;47.072;15.452;2022-11-20T14:11:55;12.30;58.90
2783;DHT22;1399;47.072;15.452;2022-11-20T14:14:26;12.30;58.90
2783;DHT22;1399;47.072;15.452;2022-11-20T14:17:03;12.30;59.00
2783;DHT22;1399;47.072;15.452;2022-11-20T14:19:30;12.30;59.00
2783;DHT22;1399;47.072;15.452;2022-11-20T14:22:17;12.30;59.10
2783;DHT22;1399;47.072;15.452;2022-11-20T14:24:47;12.30;59.20
2783;DHT22;1399;47.072;15.452;2022-11-20T14:27:19;12.20;59.20
2783;DHT22;1399;47.072;15.452;2022-11-20T14:29:48;12.20;59.30
2783;DHT22;1399;47.072;15.452;2022-11-20T14:32:17;12.20;59.30
2783;DHT22;1399;47.072;15.452;2022-11-20T14:34:45;12.20;59.40
2783;DHT22;1399;47.072;15.452;2022-11-20T14:37:17;12.20;59.40
2783;DHT22;1399;47.072;15.452;2022-11-20T14:39:50;12.20;59.40
2783;DHT22;1399;47.072;15.452;2022-11-20T14:42:20;12.10;59.50
2783;DHT22;1399;47.072;15.452;2022-11-20T14:44:50;12.10;59.60
2783;DHT22;1399;47.072;15.452;2022-11-20T14:47:20;12.10;59.60
2783;DHT22;1399;47.072;15.452;2022-11-20T14:49:49;12.10;59.70
2783;DHT22;1399;47.072;15.452;2022-11-20T14:52:21;12.00;59.70
2783;DHT22;1399;47.072;15.452;2022-11-20T14:54:58;12.10;59.80
2783;DHT22;1399;47.072;15.452;2022-11-20T14:57:29;12.00;59.80
2783;DHT22;1399;47.072;15.452;2022-11-20T15:00:17;12.00;59.90
2783;DHT22;1399;47.072;15.452;2022-11-20T15:02:47;12.00;60.00
2783;DHT22;1399;47.072;15.452;2022-11-20T15:05:14;12.00;60.10
2783;DHT22;1399;47.072;15.452;2022-11-20T15:07:46;12.00;60.10
2783;DHT22;1399;47.072;15.452;2022-11-20T15:10:13;11.90;60.00
2783;DHT22;1399;47.072;15.452;2022-11-20T15:15:59;11.90;60.30
2783;DHT22;1399;47.072;15.452;2022-11-20T15:18:32;11.90;60.40
2783;DHT22;1399;47.072;15.452;2022-11-20T15:21:06;11.80;60.40
2783;DHT22;1399;47.072;15.452;2022-11-20T15:23:35;11.80;60.50
2783;DHT22;1399;47.072;15.452;2022-11-20T15:26:00;11.80;60.70
2783;DHT22;1399;47.072;15.452;2022-11-20T15:31:05;11.70;60.80
2783;DHT22;1399;47.072;15.452;2022-11-20T15:33:32;11.70;61.00
2783;DHT22;1399;47.072;15.452;2022-11-20T15:35:59;11.70;61.10
2783;DHT22;1399;47.072;15.452;2022-11-20T15:38:25;11.70;61.20
2783;DHT22;1399;47.072;15.452;2022-11-20T15:40:51;11.70;61.40
2783;DHT22;1399;47.072;15.452;2022-11-20T15:43:18;11.60;61.50
2783;DHT22;1399;47.072;15.452;2022-11-20T15:46:28;11.60;61.70
2783;DHT22;1399;47.072;15.452;2022-11-20T15:48:56;11.60;61.90
2783;DHT22;1399;47.072;15.452;2022-11-20T15:51:34;11.60;62.00
2783;DHT22;1399;47.072;15.452;2022-11-20T15:54:01;11.60;62.20
2783;DHT22;1399;47.072;15.452;2022-11-20T15:56:29;11.50;62.20
2783;DHT22;1399;47.072;15.452;2022-11-20T15:58:55;11.50;62.40
2783;DHT22;1399;47.072;15.452;2022-11-20T16:01:23;11.50;62.50
2783;DHT22;1399;47.072;15.452;2022-11-20T16:03:49;11.50;62.60
2783;DHT22;1399;47.072;15.452;2022-11-20T16:06:15;11.40;62.70
2783;DHT22;1399;47.072;15.452;2022-11-20T16:08:44;11.50;62.90
2783;DHT22;1399;47.072;15.452;2022-11-20T16:11:15;11.40;62.80
2783;DHT22;1399;47.072;15.452;2022-11-20T16:13:43;11.40;63.00
2783;DHT22;1399;47.072;15.452;2022-11-20T16:16:29;11.40;63.20
2783;DHT22;1399;47.072;15.452;2022-11-20T16:18:57;11.30;63.10
2783;DHT22;1399;47.072;15.452;2022-11-20T16:21:23;11.40;63.30
2783;DHT22;1399;47.072;15.452;2022-11-20T16:24:00;11.40;63.50
2783;DHT22;1399;47.072;15.452;2022-11-20T16:26:27;11.40;63.60
2783;DHT22;1399;47.072;15.452;2022-11-20T16:28:55;11.30;63.50
2783;DHT22;1399;47.072;15.452;2022-11-20T16:31:22;11.30;63.50
2783;DHT22;1399;47.072;15.452;2022-11-20T16:33:56;11.40;63.70
2783;DHT22;1399;47.072;15.452;2022-11-20T16:36:24;11.30;63.70
2783;DHT22;1399;47.072;15.452;2022-11-20T16:38:55;11.30;63.60
2783;DHT22;1399;47.072;15.452;2022-11-20T16:41:23;11.30;63.70
2783;DHT22;1399;47.072;15.452;2022-11-20T16:43:56;11.30;63.70
2783;DHT22;1399;47.072;15.452;2022-11-20T16:46:28;11.30;63.80
2783;DHT22;1399;47.072;15.452;2022-11-20T16:48:56;11.30;63.80
2783;DHT22;1399;47.072;15.452;2022-11-20T16:51:23;11.30;63.90
2783;DHT22;1399;47.072;15.452;2022-11-20T16:53:50;11.30;64.10
2783;DHT22;1399;47.072;15.452;2022-11-20T16:56:18;11.20;64.00
2783;DHT22;1399;47.072;15.452;2022-11-20T16:58:46;11.20;64.10
2783;DHT22;1399;47.072;15.452;2022-11-20T17:01:21;11.20;64.20
2783;DHT22;1399;47.072;15.452;2022-11-20T17:04:03;11.30;64.30
2783;DHT22;1399;47.072;15.452;2022-11-20T17:06:32;11.20;64.20
2783;DHT22;1399;47.072;15.452;2022-11-20T17:08:59;11.20;64.20
2783;DHT22;1399;47.072;15.452;2022-11-20T17:11:26;11.20;64.20
2783;DHT22;1399;47.072;15.452;2022-11-20T17:13:55;11.20;64.20
2783;DHT22;1399;47.072;15.452;2022-11-20T17:16:23;11.20;64.30
2783;DHT22;1399;47.072;15.452;2022-11-20T17:18:49;11.20;64.30
2783;DHT22;1399;47.072;15.452;2022-11-20T17:21:18;11.20;64.40
2783;DHT22;1399;47.072;15.452;2022-11-20T17:23:45;11.20;64.40
2783;DHT22;1399;47.072;15.452;2022-11-20T17:26:16;11.20;64.40
2783;DHT22;1399;47.072;15.452;2022-11-20T17:28:44;11.20;64.40
2783;DHT22;1399;47.072;15.452;2022-11-20T17:31:15;11.20;64.40
2783;DHT22;1399;47.072;15.452;2022-11-20T17:33:43;11.20;64.50
2783;DHT22;1399;47.072;15.452;2022-11-20T17:36:14;11.20;64.70
2783;DHT22;1399;47.072;15.452;2022-11-20T17:38:40;11.20;64.70
2783;DHT22;1399;47.072;15.452;2022-11-20T17:41:09;11.20;64.60
2783;DHT22;1399;47.072;15.452;2022-11-20T17:43:36;11.20;64.60
2783;DHT22;1399;47.072;15.452;2022-11-20T17:46:17;11.20;64.70
2783;DHT22;1399;47.072;15.452;2022-11-20T17:48:46;11.20;64.60
2783;DHT22;1399;47.072;15.452;2022-11-20T17:51:15;11.20;64.60
2783;DHT22;1399;47.072;15.452;2022-11-20T17:53:43;11.20;64.70
2783;DHT22;1399;47.072;15.452;2022-11-20T17:56:10;11.20;64.80